createdAt,value
2023-03-02T00:03:10.235Z,0
2023-03-02T00:07:09.784Z,0
2023-03-02T00:11:09.762Z,0.4
2023-03-02T00:15:09.406Z,0
2023-03-02T00:19:09.223Z,0
2023-03-02T00:23:09.346Z,0.39
2023-03-02T00:27:09.246Z,0
2023-03-02T00:31:09.493Z,0
2023-03-02T00:35:09.606Z,0
2023-03-02T00:39:09.707Z,0
2023-03-02T00:43:09.506Z,0
2023-03-02T00:47:10.188Z,0
2023-03-02T00:51:09.698Z,0
2023-03-02T00:55:09.495Z,0
2023-03-02T00:59:09.687Z,0.38
2023-03-02T01:03:10.449Z,0
2023-03-02T01:07:09.469Z,0
2023-03-02T01:11:09.385Z,0
2023-03-02T01:15:09.437Z,0.38
2023-03-02T01:19:09.938Z,0
2023-03-02T01:23:09.440Z,0
2023-03-02T01:27:09.732Z,0
2023-03-02T01:31:09.979Z,0
2023-03-02T01:35:09.100Z,0
2023-03-02T01:39:09.662Z,0.38
2023-03-02T01:43:09.183Z,0.38
2023-03-02T01:47:09.649Z,0.38
2023-03-02T01:51:09.605Z,0
2023-03-02T01:55:09.840Z,0
2023-03-02T01:59:09.681Z,0
2023-03-02T02:03:09.281Z,0
2023-03-02T02:07:09.304Z,0
2023-03-02T02:11:09.149Z,0
2023-03-02T02:15:09.256Z,0
2023-03-02T02:19:09.075Z,0
2023-03-02T02:23:09.334Z,0
2023-03-02T02:27:09.566Z,0
2023-03-02T02:31:09.333Z,0.37
2023-03-02T02:35:09.319Z,0.37
2023-03-02T02:39:09.428Z,0
2023-03-02T02:43:09.402Z,0
2023-03-02T02:47:09.777Z,0
2023-03-02T02:51:09.968Z,0.36
2023-03-02T02:55:09.644Z,0
2023-03-02T02:59:09.769Z,0
2023-03-02T03:03:09.393Z,0
2023-03-02T03:07:09.468Z,0
2023-03-02T03:11:09.923Z,0
2023-03-02T03:15:09.611Z,0
2023-03-02T03:19:09.439Z,0
2023-03-02T03:23:09.208Z,0
2023-03-02T03:27:09.080Z,0
2023-03-02T03:31:09.508Z,0
2023-03-02T03:35:09.710Z,0
2023-03-02T03:39:09.578Z,0
2023-03-02T03:43:09.748Z,0
2023-03-02T03:47:10.112Z,0.35
2023-03-02T03:51:09.749Z,0.35
2023-03-02T03:55:09.871Z,0
2023-03-02T03:59:09.889Z,0
2023-03-02T04:03:10.299Z,0.35
2023-03-02T04:07:09.635Z,0.35
2023-03-02T04:11:09.875Z,0.35
2023-03-02T04:15:09.891Z,0.35
2023-03-02T04:19:09.900Z,0.35
2023-03-02T04:23:09.863Z,0.35
2023-03-02T04:27:09.794Z,0.35
2023-03-02T04:31:09.862Z,0.35
2023-03-02T04:35:09.630Z,0.35
2023-03-02T04:39:09.808Z,0.35
2023-03-02T04:43:09.554Z,0.35
2023-03-02T04:47:10.921Z,0.35
2023-03-02T04:51:09.973Z,0.35
2023-03-02T04:55:10.043Z,0.35
2023-03-02T04:59:08.949Z,0.35
2023-03-02T05:03:09.224Z,0.35
2023-03-02T05:07:09.312Z,0.35
2023-03-02T05:11:09.119Z,0.35
2023-03-02T05:15:09.309Z,0.35
2023-03-02T05:19:09.349Z,0.35
2023-03-02T05:23:09.336Z,0.96
2023-03-02T05:27:09.654Z,0.96
2023-03-02T05:31:10.097Z,0.96
2023-03-02T05:35:09.617Z,0.96
2023-03-02T05:39:08.984Z,0.96
2023-03-02T05:43:09.062Z,0.96
2023-03-02T05:47:10.359Z,0.96
2023-03-02T05:51:09.493Z,0.96
2023-03-02T05:55:10.885Z,0.96
2023-03-02T05:59:10.025Z,0.96
2023-03-02T06:03:09.923Z,0.96
2023-03-02T06:07:10.558Z,0.96
2023-03-02T06:11:10.308Z,0.96
2023-03-02T06:15:09.278Z,0.96
2023-03-02T06:19:09.269Z,0.96
2023-03-02T06:23:09.386Z,0.96
2023-03-02T06:27:09.420Z,0.96
2023-03-02T06:31:09.451Z,0.96
2023-03-02T06:35:09.615Z,0.96
2023-03-02T06:39:09.564Z,0.96
2023-03-02T06:43:09.831Z,0.96
2023-03-02T06:47:09.360Z,0.96
2023-03-02T06:51:09.160Z,0.96
2023-03-02T06:55:09.436Z,0.96
2023-03-02T06:59:09.699Z,0.96
2023-03-02T07:03:09.466Z,0.96
2023-03-02T07:07:09.579Z,0.96
2023-03-02T07:11:09.739Z,0.96
2023-03-02T07:15:09.576Z,0.96
2023-03-02T07:19:09.684Z,0.96
2023-03-02T07:23:09.629Z,0.96
2023-03-02T07:27:09.649Z,0.96
2023-03-02T07:31:10.095Z,0.96
2023-03-02T07:35:09.665Z,0.96
2023-03-02T07:39:09.574Z,0.96
2023-03-02T07:43:09.339Z,0.96
2023-03-02T07:47:09.879Z,0.96
2023-03-02T07:51:09.307Z,0.96
2023-03-02T07:55:09.218Z,0.96
2023-03-02T07:59:09.284Z,0.96
2023-03-02T08:03:09.596Z,0.96
2023-03-02T08:07:09.181Z,0.96
2023-03-02T08:11:09.515Z,0.96
2023-03-02T08:15:09.830Z,0.96
2023-03-02T08:19:11.234Z,0.96
2023-03-02T08:23:09.042Z,0.96
2023-03-02T08:27:12.687Z,0.96
2023-03-02T08:31:09.764Z,0.08
2023-03-02T08:35:09.736Z,0.08
2023-03-02T08:39:09.960Z,0.08
2023-03-02T08:43:09.004Z,0.08
2023-03-02T08:47:09.283Z,0.08
2023-03-02T08:51:09.100Z,0.08
2023-03-02T08:55:09.401Z,0.08
2023-03-02T08:59:09.781Z,0.08
2023-03-02T09:03:09.438Z,0.08
2023-03-02T09:07:09.853Z,0.08
2023-03-02T09:11:09.660Z,0.08
2023-03-02T09:15:09.778Z,0.08
2023-03-02T09:19:09.600Z,0.08
2023-03-02T09:23:09.448Z,0.08
2023-03-02T09:27:09.691Z,0.08
2023-03-02T09:33:23.314Z,0.08
2023-03-02T09:37:09.415Z,0.09
2023-03-02T09:37:22.872Z,0.09
2023-03-02T09:41:09.602Z,0.04
2023-03-02T09:45:09.592Z,0.04
2023-03-02T09:49:09.521Z,0.02
2023-03-02T09:53:09.698Z,0.02
2023-03-02T09:57:09.605Z,0.02
2023-03-02T10:01:33.392Z,0.01
2023-03-02T10:05:10.880Z,0.01
2023-03-02T10:09:09.884Z,0.01
2023-03-02T10:13:09.903Z,0.86
2023-03-02T10:17:11.181Z,0.86
2023-03-02T10:21:09.800Z,0.8
2023-03-02T10:25:09.550Z,0.01
2023-03-02T10:29:09.572Z,0.01
2023-03-02T10:33:09.796Z,0.71
2023-03-02T10:37:09.895Z,0.01
2023-03-02T10:41:09.973Z,0.01
2023-03-02T10:45:09.865Z,0.65
2023-03-02T10:49:20.954Z,0.63
2023-03-02T10:53:22.948Z,0.63
2023-03-02T10:57:09.550Z,0.01
2023-03-02T11:01:14.553Z,0.01
2023-03-02T11:05:10.296Z,0.01
2023-03-02T11:09:09.434Z,0.01
2023-03-02T11:13:09.797Z,0.01
2023-03-02T11:17:10.030Z,0.01
2023-03-02T11:21:09.806Z,0.01
2023-03-02T11:25:09.508Z,0.55
2023-03-02T11:29:09.517Z,0.01
2023-03-02T11:33:10.390Z,0.01
2023-03-02T11:37:09.809Z,0.01
2023-03-02T11:41:09.953Z,0.01
2023-03-02T11:45:09.813Z,0.01
2023-03-02T11:49:11.594Z,0.01
2023-03-02T11:53:12.546Z,0.01
2023-03-02T11:57:09.568Z,0.51
2023-03-02T12:01:09.822Z,0.51
2023-03-02T12:05:09.674Z,0.51
2023-03-02T12:09:09.397Z,0.01
2023-03-02T12:13:09.254Z,0.49
2023-03-02T12:17:10.652Z,0.49
2023-03-02T12:21:09.632Z,0.49
2023-03-02T12:25:09.684Z,0
2023-03-02T12:29:10.407Z,0
2023-03-02T12:33:09.781Z,0.48
2023-03-02T12:37:09.621Z,0.47
2023-03-02T12:41:11.029Z,0.47
2023-03-02T12:45:09.170Z,0.46
2023-03-02T12:49:11.567Z,0.45
2023-03-02T12:53:10.000Z,0.45
2023-03-02T12:57:09.618Z,0
2023-03-02T13:01:09.211Z,0
2023-03-02T13:05:10.055Z,0
2023-03-02T13:09:10.128Z,0
2023-03-02T13:13:09.883Z,0.46
2023-03-02T13:17:11.240Z,0.46
2023-03-02T13:21:09.313Z,0
2023-03-02T13:25:09.313Z,0.48
2023-03-02T13:29:09.432Z,0.48
2023-03-02T13:33:09.714Z,0.48
2023-03-02T13:37:09.374Z,0
2023-03-02T13:41:10.909Z,0
2023-03-02T13:45:09.647Z,0
2023-03-02T13:49:21.799Z,0
2023-03-02T13:53:09.095Z,0.47
2023-03-02T13:57:09.292Z,0.47
2023-03-02T14:01:13.078Z,0.47
2023-03-02T14:05:10.670Z,0.47
2023-03-02T14:09:09.956Z,0.47
2023-03-02T14:13:09.770Z,0
2023-03-02T14:17:10.101Z,0
2023-03-02T14:21:09.434Z,0
2023-03-02T14:25:09.158Z,0
2023-03-02T14:29:17.591Z,0
2023-03-02T14:33:09.709Z,0
2023-03-02T14:37:09.932Z,0.5
2023-03-02T14:41:09.901Z,0.5
2023-03-02T14:45:11.184Z,0.5
2023-03-02T14:49:09.666Z,0.5
2023-03-02T14:53:09.850Z,0.01
2023-03-02T14:57:11.915Z,0.01
2023-03-02T15:01:16.259Z,0.01
2023-03-02T15:05:09.293Z,0.52
2023-03-02T15:09:09.301Z,0.01
2023-03-02T15:13:09.368Z,0.53
2023-03-02T15:17:10.043Z,0.01
2023-03-02T15:21:09.830Z,0.53
2023-03-02T15:25:09.647Z,0.01
2023-03-02T15:29:09.593Z,0.53
2023-03-02T15:33:10.299Z,0.01
2023-03-02T15:37:09.942Z,0.01
2023-03-02T15:41:10.025Z,0.53
2023-03-02T15:45:09.899Z,0.53
2023-03-02T15:49:10.382Z,0.53
2023-03-02T15:53:08.949Z,0.53
2023-03-02T15:57:18.423Z,0.53
2023-03-02T16:01:13.277Z,0.01
2023-03-02T16:05:09.480Z,0.01
2023-03-02T16:09:09.847Z,0.53
2023-03-02T16:13:09.673Z,0.53
2023-03-02T16:17:10.191Z,0.53
2023-03-02T16:21:09.572Z,0.51
2023-03-02T16:25:09.586Z,0.51
2023-03-02T16:29:09.526Z,0
2023-03-02T16:33:10.215Z,0
2023-03-02T16:37:09.813Z,0
2023-03-02T16:41:09.933Z,0
2023-03-02T16:45:09.664Z,0
2023-03-02T16:49:09.483Z,0
2023-03-02T16:53:09.258Z,0
2023-03-02T16:57:09.124Z,0
2023-03-02T17:01:13.606Z,0
2023-03-02T17:05:13.411Z,0.46
2023-03-02T17:09:11.341Z,0.44
2023-03-02T17:13:09.528Z,0.44
2023-03-02T17:17:09.657Z,0.44
2023-03-02T17:21:09.237Z,0.43
2023-03-02T17:25:09.272Z,0.43
2023-03-02T17:29:09.469Z,0.43
2023-03-02T17:33:09.378Z,0
2023-03-02T17:37:10.705Z,0
2023-03-02T17:41:09.142Z,0
2023-03-02T17:45:09.097Z,0.44
2023-03-02T17:49:09.056Z,0
2023-03-02T17:53:09.227Z,0.44
2023-03-02T17:57:09.833Z,0
2023-03-02T18:01:16.438Z,0
2023-03-02T18:05:10.075Z,0.43
2023-03-02T18:09:09.740Z,0.41
2023-03-02T18:13:09.789Z,0.41
2023-03-02T18:17:09.765Z,0.4
2023-03-02T18:21:09.530Z,0.4
2023-03-02T18:25:09.486Z,0.4
2023-03-02T18:29:09.332Z,0.38
2023-03-02T18:33:09.536Z,0
2023-03-02T18:37:09.226Z,0.36
2023-03-02T18:41:09.480Z,0.36
2023-03-02T18:45:09.064Z,0.36
2023-03-02T18:49:09.146Z,0
2023-03-02T18:53:10.779Z,0
2023-03-02T18:57:09.559Z,0
2023-03-02T19:01:14.277Z,0
2023-03-02T19:05:09.006Z,0
2023-03-02T19:09:09.370Z,0
2023-03-02T19:13:09.357Z,0
2023-03-02T19:17:09.702Z,0
2023-03-02T19:21:09.453Z,0
2023-03-02T19:25:09.623Z,0
2023-03-02T19:29:09.951Z,0
2023-03-02T19:33:10.246Z,0
2023-03-02T19:37:09.156Z,0
2023-03-02T19:41:09.412Z,0.36
2023-03-02T19:45:09.442Z,0
2023-03-02T19:49:09.664Z,0
2023-03-02T19:53:09.729Z,0
2023-03-02T19:57:09.987Z,0
2023-03-02T20:01:13.591Z,0
2023-03-02T20:05:09.617Z,0
2023-03-02T20:09:09.878Z,0
2023-03-02T20:13:09.641Z,0
2023-03-02T20:17:10.007Z,0
2023-03-02T20:21:09.934Z,0.42
2023-03-02T20:25:09.700Z,0.42
2023-03-02T20:29:09.146Z,0
2023-03-02T20:33:09.292Z,0.41
2023-03-02T20:37:09.453Z,0.41
2023-03-02T20:41:10.035Z,0.41
2023-03-02T20:45:11.638Z,0.41
2023-03-02T20:49:09.872Z,0.41
2023-03-02T20:53:08.943Z,0.41
2023-03-02T20:57:09.120Z,0
2023-03-02T21:01:14.720Z,0
2023-03-02T21:05:10.440Z,0
2023-03-02T21:09:09.851Z,0
2023-03-02T21:13:10.574Z,0
2023-03-02T21:17:10.078Z,0
2023-03-02T21:21:09.289Z,0
2023-03-02T21:25:09.109Z,0.42
2023-03-02T21:29:09.108Z,0
2023-03-02T21:33:09.418Z,0
2023-03-02T21:37:09.342Z,0.43
2023-03-02T21:41:09.683Z,0
2023-03-02T21:45:09.510Z,0
2023-03-02T21:49:09.706Z,0.44
2023-03-02T21:53:09.614Z,0
2023-03-02T21:57:09.459Z,0
2023-03-02T22:01:15.943Z,0
2023-03-02T22:05:09.572Z,0
2023-03-02T22:09:09.639Z,0.45
2023-03-02T22:13:09.386Z,0.44
2023-03-02T22:17:09.322Z,0.44
2023-03-02T22:21:09.854Z,0
2023-03-02T22:25:09.141Z,0
2023-03-02T22:29:09.141Z,0
2023-03-02T22:33:09.584Z,0
2023-03-02T22:37:09.169Z,0.45
2023-03-02T22:41:09.244Z,0.44
2023-03-02T22:45:09.203Z,0.44
2023-03-02T22:49:08.951Z,0
2023-03-02T22:53:09.079Z,0.43
2023-03-02T22:57:09.099Z,0.43
2023-03-02T23:01:09.779Z,0.43
2023-03-02T23:05:09.450Z,0
2023-03-02T23:09:09.263Z,0.43
2023-03-02T23:13:09.165Z,0
2023-03-02T23:17:09.446Z,0.43
2023-03-02T23:21:09.464Z,0.43
2023-03-02T23:25:09.435Z,0
2023-03-02T23:29:09.582Z,0.43
2023-03-02T23:33:10.529Z,0.43
2023-03-02T23:37:09.745Z,0.43
2023-03-02T23:41:10.030Z,0.43
2023-03-02T23:45:09.197Z,0.43
2023-03-02T23:49:09.581Z,0.43
2023-03-02T23:53:09.523Z,0
2023-03-02T23:57:09.467Z,0
